Time;durP1;ratioP1;P1;durP2;ratioP2;P2;SDS_P1;SDS_P2;PMS_P1;PMS_P2;Temp;Humidity;BMP_temperature;BMP_pressure;BME280_temperature;BME280_humidity;BME280_pressure;Samples;Min_cycle;Max_cycle;Signal;HPM_P1;HPM_P2
2022/08/25 00:01:27;;;;;;;33.30;13.40;;;23.50;65.50;;;;;;5020830;28;20135;-80
2022/08/25 00:03:53;;;;;;;30.98;13.45;;;23.60;63.00;;;;;;5025688;28;20075;-80
2022/08/25 00:06:20;;;;;;;29.80;14.18;;;23.60;62.40;;;;;;5025459;28;20033;-80
2022/08/25 00:08:47;;;;;;;28.60;13.35;;;23.60;62.50;;;;;;5021243;28;20077;-81
2022/08/25 00:11:20;;;;;;;32.80;13.40;;;23.60;62.70;;;;;;5021180;28;20121;-79
2022/08/25 00:13:49;;;;;;;23.20;13.73;;;23.60;62.30;;;;;;5021835;28;20037;-79
2022/08/25 00:16:17;;;;;;;25.67;14.02;;;23.60;62.10;;;;;;5035600;28;20062;-79
2022/08/25 00:18:45;;;;;;;27.33;12.63;;;23.60;61.70;;;;;;5019988;28;20113;-80
2022/08/25 00:21:13;;;;;;;24.83;12.75;;;23.60;62.50;;;;;;5008532;28;20029;-81
2022/08/25 00:23:40;;;;;;;24.10;13.32;;;23.60;64.60;;;;;;5023552;28;20092;-81
2022/08/25 00:26:07;;;;;;;21.58;12.35;;;23.50;63.60;;;;;;5024883;28;20035;-80
2022/08/25 00:28:33;;;;;;;26.23;12.50;;;23.50;66.80;;;;;;5037205;28;20038;-81
2022/08/25 00:31:00;;;;;;;22.40;12.18;;;23.30;66.90;;;;;;5035874;28;20033;-81
2022/08/25 00:33:26;;;;;;;22.08;12.40;;;23.30;66.10;;;;;;5022618;28;20040;-81
2022/08/25 00:35:53;;;;;;;22.60;12.55;;;23.30;66.70;;;;;;5039556;28;20519;-80
2022/08/25 00:38:19;;;;;;;21.77;12.85;;;23.10;67.40;;;;;;5020752;28;20040;-81
2022/08/25 00:40:45;;;;;;;19.85;12.35;;;23.10;67.50;;;;;;5021508;28;20038;-81
2022/08/25 00:43:12;;;;;;;25.75;12.55;;;23.10;68.50;;;;;;5021389;28;20033;-81
2022/08/25 00:45:39;;;;;;;25.92;13.68;;;22.90;69.20;;;;;;5020889;28;20565;-80
2022/08/25 00:48:05;;;;;;;23.75;13.68;;;23.00;66.70;;;;;;5019183;28;20124;-81
2022/08/25 00:50:33;;;;;;;24.60;13.05;;;23.10;66.90;;;;;;5023331;28;20041;-81
2022/08/25 00:53:02;;;;;;;23.90;12.40;;;23.10;66.90;;;;;;5021048;28;20103;-81
2022/08/25 00:55:38;;;;;;;24.13;14.18;;;23.00;67.40;;;;;;5020483;28;20119;-81
2022/08/25 00:58:18;;;;;;;29.85;15.60;;;23.10;65.30;;;;;;5019724;28;20045;-80
2022/08/25 01:00:48;;;;;;;32.45;15.15;;;23.10;63.20;;;;;;5038150;28;20079;-81
2022/08/25 01:03:16;;;;;;;31.10;14.05;;;23.10;62.00;;;;;;5024206;28;20034;-81
2022/08/25 01:05:42;;;;;;;37.47;15.07;;;23.10;63.60;;;;;;5018792;28;20073;-82
2022/08/25 01:08:09;;;;;;;28.13;14.65;;;23.10;63.30;;;;;;5020459;28;20192;-80
2022/08/25 01:10:38;;;;;;;36.17;15.90;;;23.10;62.30;;;;;;5007032;28;20041;-79
2022/08/25 01:13:09;;;;;;;28.27;15.50;;;23.10;61.60;;;;;;5018529;28;20033;-78
2022/08/25 01:15:35;;;;;;;26.10;14.65;;;23.10;62.20;;;;;;5019253;28;20061;-78
2022/08/25 01:18:02;;;;;;;30.13;16.65;;;23.10;64.90;;;;;;5018234;28;20038;-78
2022/08/25 01:20:31;;;;;;;32.63;15.45;;;23.00;63.30;;;;;;5018923;28;20029;-78
2022/08/25 01:22:58;;;;;;;22.35;14.07;;;23.00;64.20;;;;;;5019326;28;20037;-78
2022/08/25 01:25:36;;;;;;;21.45;13.75;;;22.80;66.90;;;;;;5023645;28;20484;-78
2022/08/25 01:28:03;;;;;;;39.45;19.00;;;22.70;68.00;;;;;;5019016;28;20125;-78
2022/08/25 01:30:30;;;;;;;39.13;20.70;;;22.80;64.30;;;;;;5020794;28;20044;-78
2022/08/25 01:32:55;;;;;;;32.50;18.05;;;22.80;64.00;;;;;;5034849;28;20029;-78
2022/08/25 01:35:22;;;;;;;28.10;15.98;;;22.90;64.30;;;;;;5035741;28;20446;-78
2022/08/25 01:37:48;;;;;;;39.25;22.10;;;22.80;65.70;;;;;;5018252;28;21011;-78
2022/08/25 01:40:14;;;;;;;43.22;22.58;;;22.80;64.00;;;;;;5023704;28;20037;-80
2022/08/25 01:42:53;;;;;;;34.75;21.48;;;22.80;63.60;;;;;;5017364;28;20091;-77
2022/08/25 01:45:20;;;;;;;37.80;23.98;;;22.70;64.30;;;;;;5019813;28;20037;-77
2022/08/25 01:47:46;;;;;;;44.72;25.35;;;22.70;63.20;;;;;;5019289;28;20095;-78
2022/08/25 01:50:12;;;;;;;40.22;24.83;;;22.70;63.00;;;;;;5006324;28;20140;-77
2022/08/25 01:52:57;;;;;;;35.60;21.63;;;22.60;63.30;;;;;;5020477;28;20197;-77
2022/08/25 01:55:22;;;;;;;43.40;26.33;;;22.60;65.00;;;;;;5034485;28;20144;-77
2022/08/25 01:57:49;;;;;;;37.85;21.75;;;22.60;64.40;;;;;;5020843;28;20129;-77
2022/08/25 02:00:17;;;;;;;33.03;19.52;;;22.50;65.30;;;;;;5022420;28;20463;-77
2022/08/25 02:02:45;;;;;;;46.53;28.60;;;22.50;66.60;;;;;;5020123;28;20098;-77
2022/08/25 02:05:14;;;;;;;50.72;31.05;;;22.40;64.30;;;;;;5018750;28;20029;-77
2022/08/25 02:07:41;;;;;;;57.33;35.17;;;22.40;64.00;;;;;;5018750;28;20030;-77
2022/08/25 02:10:08;;;;;;;54.25;34.13;;;22.50;63.70;;;;;;5020530;28;20068;-77
2022/08/25 02:12:34;;;;;;;52.28;35.08;;;22.50;63.30;;;;;;5020515;28;20491;-77
2022/08/25 02:15:01;;;;;;;57.65;30.27;;;22.50;62.60;;;;;;5019814;28;20038;-78
2022/08/25 02:17:28;;;;;;;35.97;23.90;;;22.50;64.60;;;;;;5019627;28;20045;-77
2022/08/25 02:19:55;;;;;;;35.58;23.70;;;22.40;67.30;;;;;;5035188;28;20041;-78
2022/08/25 02:22:22;;;;;;;60.00;36.88;;;22.40;67.30;;;;;;5022469;28;20033;-78
2022/08/25 02:24:49;;;;;;;63.78;37.72;;;22.40;66.00;;;;;;5034943;28;20080;-78
2022/08/25 02:27:15;;;;;;;67.65;39.80;;;22.40;65.00;;;;;;5034314;28;20030;-77
2022/08/25 02:29:41;;;;;;;65.55;37.45;;;22.40;64.70;;;;;;5019068;28;20218;-77
2022/08/25 02:32:07;;;;;;;39.55;22.42;;;22.40;64.20;;;;;;5018018;28;20500;-78
2022/08/25 02:34:34;;;;;;;30.23;19.30;;;22.40;67.40;;;;;;5021091;28;20083;-77
2022/08/25 02:37:00;;;;;;;31.42;20.58;;;22.30;69.00;;;;;;5022622;28;20480;-78
2022/08/25 02:39:26;;;;;;;31.52;19.35;;;22.20;69.60;;;;;;5033855;28;20099;-77
2022/08/25 02:41:53;;;;;;;32.97;21.30;;;22.10;70.30;;;;;;5019492;28;20134;-78
2022/08/25 02:44:19;;;;;;;36.42;23.48;;;22.10;69.70;;;;;;5001558;28;20029;-77
2022/08/25 02:46:45;;;;;;;32.80;22.65;;;22.20;69.40;;;;;;5018210;28;20124;-77
2022/08/25 02:49:11;;;;;;;32.08;21.98;;;22.30;69.70;;;;;;5020366;28;20033;-77
2022/08/25 02:51:36;;;;;;;41.15;25.95;;;22.30;69.80;;;;;;5036936;28;20038;-77
2022/08/25 02:54:04;;;;;;;42.75;25.98;;;22.30;69.00;;;;;;5020859;28;20072;-77
2022/08/25 02:56:32;;;;;;;36.75;22.92;;;22.30;69.00;;;;;;5018285;28;20091;-77
2022/08/25 02:58:58;;;;;;;36.90;23.65;;;22.30;69.40;;;;;;5018789;28;20057;-77
2022/08/25 03:01:24;;;;;;;36.83;25.00;;;22.40;69.50;;;;;;5022143;28;20045;-77
2022/08/25 03:03:53;;;;;;;45.25;25.02;;;22.40;69.10;;;;;;5035959;28;20038;-77
2022/08/25 03:06:24;;;;;;;38.58;22.08;;;22.40;69.20;;;;;;5023638;28;20034;-77
2022/08/25 03:08:51;;;;;;;38.15;21.88;;;22.40;69.40;;;;;;5020395;28;20136;-79
2022/08/25 03:11:18;;;;;;;32.17;19.88;;;22.40;68.90;;;;;;5020370;28;20464;-77
2022/08/25 03:13:45;;;;;;;34.47;21.42;;;22.40;69.60;;;;;;5020675;28;20057;-77
2022/08/25 03:16:11;;;;;;;35.58;20.50;;;22.50;69.30;;;;;;5019869;28;20065;-77
2022/08/25 03:18:39;;;;;;;34.20;20.10;;;22.40;70.10;;;;;;5024614;28;20095;-77
2022/08/25 03:21:06;;;;;;;36.03;20.05;;;22.40;70.10;;;;;;5022134;28;20038;-77
2022/08/25 03:23:31;;;;;;;30.48;20.38;;;22.30;70.30;;;;;;5023970;28;20038;-77
2022/08/25 03:28:42;;;;;;;34.67;20.00;;;22.30;69.40;;;;;;5021945;28;20029;-76
2022/08/25 03:31:08;;;;;;;35.65;19.10;;;22.30;69.70;;;;;;5022930;28;20120;-77
2022/08/25 03:33:35;;;;;;;37.80;20.40;;;22.30;71.10;;;;;;5024011;28;20385;-79
2022/08/25 03:36:01;;;;;;;34.60;19.13;;;22.30;68.80;;;;;;5022855;28;20492;-77
2022/08/25 03:38:27;;;;;;;29.60;17.48;;;22.30;68.30;;;;;;5025991;28;20037;-76
2022/08/25 03:40:53;;;;;;;29.88;15.85;;;22.30;66.90;;;;;;5022420;28;20037;-77
2022/08/25 03:43:20;;;;;;;29.83;17.33;;;22.40;66.40;;;;;;5023147;28;20030;-77
2022/08/25 03:45:46;;;;;;;36.80;18.30;;;22.50;66.70;;;;;;5022871;28;20021;-77
2022/08/25 03:48:13;;;;;;;33.67;18.75;;;22.50;67.30;;;;;;5037926;28;20162;-77
2022/08/25 03:50:48;;;;;;;32.08;17.17;;;22.60;67.80;;;;;;5020601;28;20500;-78
2022/08/25 03:53:14;;;;;;;35.45;18.05;;;22.60;66.60;;;;;;5021172;28;20079;-78
2022/08/25 03:55:40;;;;;;;35.22;18.20;;;22.60;67.10;;;;;;5022604;28;20049;-77
2022/08/25 03:58:06;;;;;;;34.35;18.38;;;22.60;66.70;;;;;;5022457;28;20037;-77
2022/08/25 04:00:33;;;;;;;36.45;19.65;;;22.70;66.80;;;;;;5022387;28;20038;-79
2022/08/25 04:02:58;;;;;;;33.92;18.70;;;22.80;66.50;;;;;;5020624;28;20053;-77
2022/08/25 04:05:24;;;;;;;30.10;17.00;;;22.80;65.50;;;;;;5036942;28;20049;-76
2022/08/25 04:07:50;;;;;;;32.15;17.60;;;22.80;64.50;;;;;;5021709;28;20046;-78
2022/08/25 04:10:16;;;;;;;35.25;20.98;;;22.80;64.30;;;;;;5036804;28;20055;-79
2022/08/25 04:12:42;;;;;;;35.15;20.58;;;22.80;65.50;;;;;;5020023;28;20047;-75
2022/08/25 04:15:09;;;;;;;36.53;19.90;;;22.80;65.90;;;;;;5023256;28;20618;-76
2022/08/25 04:17:39;;;;;;;31.40;18.27;;;23.00;65.90;;;;;;5038108;28;20037;-75
2022/08/25 04:20:08;;;;;;;31.45;16.80;;;23.00;65.20;;;;;;5023225;28;20587;-75
2022/08/25 04:22:35;;;;;;;31.38;15.57;;;23.10;64.90;;;;;;5023888;28;20091;-76
2022/08/25 04:25:01;;;;;;;29.20;14.45;;;23.10;64.30;;;;;;5021742;28;20098;-76
2022/08/25 04:27:27;;;;;;;25.88;15.10;;;23.10;63.90;;;;;;5023023;28;20033;-78
2022/08/25 04:29:53;;;;;;;23.10;13.85;;;23.20;64.40;;;;;;5024276;28;20052;-77
2022/08/25 04:32:19;;;;;;;24.40;13.65;;;23.30;63.80;;;;;;5022234;28;20076;-76
2022/08/25 04:34:45;;;;;;;31.25;13.50;;;23.30;63.60;;;;;;5021643;28;20064;-77
2022/08/25 04:37:11;;;;;;;23.35;13.75;;;23.40;63.60;;;;;;5022387;28;20516;-77
2022/08/25 04:39:37;;;;;;;31.55;15.15;;;23.60;63.60;;;;;;5021063;28;20030;-76
2022/08/25 04:42:03;;;;;;;31.45;16.38;;;23.80;63.00;;;;;;5003626;28;20041;-81
2022/08/25 04:44:30;;;;;;;25.83;13.95;;;24.10;62.90;;;;;;5021626;28;20053;-80
2022/08/25 04:46:57;;;;;;;24.35;13.60;;;24.40;61.90;;;;;;5037651;28;20033;-81
2022/08/25 04:49:22;;;;;;;22.73;13.70;;;24.80;61.20;;;;;;5020314;28;20575;-79
2022/08/25 04:51:49;;;;;;;24.10;12.10;;;25.10;60.60;;;;;;5034983;28;20163;-80
2022/08/25 04:54:15;;;;;;;22.55;12.55;;;25.30;59.70;;;;;;5018985;28;20086;-80
2022/08/25 04:56:42;;;;;;;22.52;12.10;;;25.50;59.10;;;;;;5020384;28;21183;-80
2022/08/25 04:59:14;;;;;;;23.23;11.40;;;25.80;58.70;;;;;;5023291;28;20046;-80
2022/08/25 05:01:41;;;;;;;25.98;12.35;;;26.00;57.70;;;;;;5022205;28;20048;-80
2022/08/25 05:04:10;;;;;;;18.25;12.02;;;26.10;57.50;;;;;;5020549;28;20052;-80
2022/08/25 05:06:36;;;;;;;18.88;11.05;;;26.40;57.50;;;;;;5022775;28;20033;-80
2022/08/25 05:09:03;;;;;;;20.88;12.27;;;26.50;56.90;;;;;;5024256;28;20128;-80
2022/08/25 05:11:29;;;;;;;22.90;12.18;;;26.70;57.00;;;;;;5039479;28;20044;-80
2022/08/25 05:13:56;;;;;;;23.92;12.32;;;26.80;57.10;;;;;;5021433;28;20121;-80
2022/08/25 05:16:24;;;;;;;18.15;11.52;;;27.00;56.50;;;;;;5024004;28;20401;-80
2022/08/25 05:18:51;;;;;;;17.85;11.10;;;27.20;56.80;;;;;;5021165;28;20036;-80
2022/08/25 05:21:20;;;;;;;17.67;11.10;;;27.30;56.70;;;;;;5021750;28;20109;-81
2022/08/25 05:23:46;;;;;;;25.45;11.50;;;27.50;56.50;;;;;;5022264;28;20033;-82
2022/08/25 05:26:19;;;;;;;15.00;11.05;;;27.60;56.30;;;;;;5021130;28;20034;-80
2022/08/25 05:28:46;;;;;;;17.77;10.88;;;27.80;56.20;;;;;;5021552;28;20036;-81
2022/08/25 05:31:13;;;;;;;17.40;10.38;;;27.90;55.90;;;;;;5021950;28;20041;-80
2022/08/25 05:33:40;;;;;;;13.75;10.27;;;28.10;55.90;;;;;;5021306;28;20057;-80
2022/08/25 05:36:10;;;;;;;16.80;10.73;;;28.20;55.70;;;;;;5022512;28;20030;-80
2022/08/25 05:38:37;;;;;;;21.08;11.00;;;28.20;55.50;;;;;;5019725;28;20511;-80
2022/08/25 05:41:05;;;;;;;22.10;11.00;;;28.30;55.60;;;;;;5035912;28;20072;-81
2022/08/25 05:43:31;;;;;;;20.65;10.70;;;28.30;55.60;;;;;;5018649;28;20125;-81
2022/08/25 05:45:58;;;;;;;16.70;10.73;;;28.30;54.30;;;;;;5022572;28;20478;-81
2022/08/25 05:48:26;;;;;;;15.55;9.63;;;28.40;54.50;;;;;;5020066;28;20037;-81
2022/08/25 05:50:53;;;;;;;13.85;10.13;;;28.50;54.80;;;;;;5021153;28;20124;-82
2022/08/25 05:53:21;;;;;;;15.27;10.18;;;28.60;54.90;;;;;;5021659;28;20059;-82
2022/08/25 05:55:48;;;;;;;14.27;9.60;;;28.60;54.80;;;;;;5020758;28;20043;-82
2022/08/25 05:58:14;;;;;;;15.63;9.50;;;28.70;54.80;;;;;;5020728;28;20115;-81
2022/08/25 06:00:40;;;;;;;16.25;9.77;;;28.80;54.40;;;;;;5024919;28;20489;-81
2022/08/25 06:03:06;;;;;;;14.70;9.43;;;28.80;54.30;;;;;;5022649;28;20041;-81
2022/08/25 06:05:32;;;;;;;19.98;9.82;;;29.00;54.30;;;;;;5019466;28;20120;-81
2022/08/25 06:08:17;;;;;;;16.08;9.32;;;29.00;54.20;;;;;;5021920;28;20046;-81
2022/08/25 06:10:44;;;;;;;16.88;9.15;;;29.10;54.10;;;;;;5018769;28;20034;-81
2022/08/25 06:13:09;;;;;;;14.23;9.23;;;29.10;53.90;;;;;;5019553;28;20033;-81
2022/08/25 06:15:36;;;;;;;15.10;9.40;;;29.20;53.80;;;;;;5021003;28;20025;-81
2022/08/25 06:18:02;;;;;;;13.15;9.18;;;29.20;53.60;;;;;;5021391;28;20413;-81
2022/08/25 06:20:29;;;;;;;16.30;8.77;;;29.30;53.40;;;;;;5020592;28;20036;-81
2022/08/25 06:22:56;;;;;;;15.07;8.85;;;29.40;53.30;;;;;;5020087;28;20033;-81
2022/08/25 06:25:24;;;;;;;13.05;8.95;;;29.50;53.20;;;;;;5020092;28;20037;-81
2022/08/25 06:27:50;;;;;;;15.07;8.88;;;29.60;53.20;;;;;;5021508;28;20135;-81
2022/08/25 06:30:19;;;;;;;17.42;9.30;;;29.60;53.00;;;;;;5020555;28;20104;-81
2022/08/25 06:32:46;;;;;;;13.40;8.23;;;29.70;52.80;;;;;;5020159;28;20060;-80
2022/08/25 06:35:15;;;;;;;14.55;8.13;;;29.70;52.80;;;;;;5018358;28;20041;-80
2022/08/25 06:37:41;;;;;;;25.63;8.75;;;29.80;52.50;;;;;;5023413;28;20045;-83
2022/08/25 06:40:08;;;;;;;14.95;8.00;;;29.90;52.50;;;;;;5036354;28;20037;-82
2022/08/25 06:42:34;;;;;;;15.63;8.45;;;29.80;52.30;;;;;;5018471;28;20079;-81
2022/08/25 06:45:01;;;;;;;17.42;8.05;;;29.90;52.10;;;;;;5020990;28;20038;-80
2022/08/25 06:47:27;;;;;;;15.38;8.00;;;29.90;52.10;;;;;;5021157;28;20053;-80
2022/08/25 06:49:53;;;;;;;15.65;7.93;;;29.90;51.40;;;;;;5024608;28;20029;-82
2022/08/25 06:52:19;;;;;;;12.30;8.15;;;30.00;51.60;;;;;;5018385;28;20049;-84
2022/08/25 06:54:45;;;;;;;13.05;8.15;;;30.00;52.40;;;;;;5036900;28;20032;-84
2022/08/25 06:57:11;;;;;;;10.60;8.00;;;30.00;51.90;;;;;;5025853;28;20044;-83
2022/08/25 06:59:37;;;;;;;13.23;7.93;;;30.00;51.00;;;;;;5025212;28;20057;-83
2022/08/25 07:02:04;;;;;;;12.68;7.90;;;30.20;50.90;;;;;;5022890;28;20045;-82
2022/08/25 07:04:32;;;;;;;15.52;8.13;;;30.20;50.80;;;;;;5024895;28;20057;-81
2022/08/25 07:06:58;;;;;;;12.73;8.15;;;30.20;50.60;;;;;;5022924;28;20401;-82
2022/08/25 07:09:24;;;;;;;11.15;7.70;;;30.20;50.60;;;;;;5026557;28;20056;-82
2022/08/25 07:11:51;;;;;;;15.65;7.55;;;30.30;50.90;;;;;;5021759;28;20042;-83
2022/08/25 07:14:18;;;;;;;9.95;7.32;;;30.30;50.70;;;;;;5022317;28;20037;-84
2022/08/25 07:16:45;;;;;;;13.73;7.55;;;30.30;50.50;;;;;;5026210;28;20033;-87
2022/08/25 07:19:11;;;;;;;16.20;7.57;;;30.30;50.40;;;;;;5026241;28;20076;-81
2022/08/25 07:21:38;;;;;;;10.75;7.40;;;30.40;50.50;;;;;;5027139;28;20407;-83
2022/08/25 07:24:08;;;;;;;14.45;7.50;;;30.40;50.10;;;;;;5023575;28;20061;-81
2022/08/25 07:26:35;;;;;;;12.38;7.50;;;30.30;50.00;;;;;;5026636;28;20428;-81
2022/08/25 07:29:12;;;;;;;13.80;7.50;;;30.40;50.30;;;;;;5010597;28;20038;-85
2022/08/25 07:31:39;;;;;;;10.85;7.40;;;30.40;50.70;;;;;;5022974;28;20060;-85
2022/08/25 07:36:50;;;;;;;11.90;7.40;;;30.40;50.00;;;;;;5026830;28;20034;-88
2022/08/25 07:39:17;;;;;;;12.43;7.55;;;30.40;49.90;;;;;;5049211;28;20037;-79
2022/08/25 07:41:43;;;;;;;15.65;7.80;;;30.50;49.90;;;;;;5033372;28;20061;-78
2022/08/25 07:44:10;;;;;;;12.82;7.45;;;30.50;50.00;;;;;;5027461;28;20033;-80
2022/08/25 07:46:37;;;;;;;13.98;7.40;;;30.50;49.90;;;;;;5014760;28;20026;-79
2022/08/25 07:49:04;;;;;;;13.48;8.30;;;30.60;49.70;;;;;;5012552;28;20045;-79
2022/08/25 07:51:30;;;;;;;12.82;7.95;;;30.60;49.50;;;;;;5029120;28;20120;-78
2022/08/25 07:53:56;;;;;;;16.25;8.27;;;30.60;49.30;;;;;;5028185;28;20511;-83
2022/08/25 07:56:22;;;;;;;10.48;7.32;;;30.60;49.00;;;;;;5043505;28;20121;-83
2022/08/25 07:58:48;;;;;;;15.90;8.30;;;30.60;49.50;;;;;;5032447;28;20068;-83
2022/08/25 08:01:17;;;;;;;15.57;7.70;;;30.60;49.90;;;;;;5032970;28;20125;-82
2022/08/25 08:03:43;;;;;;;20.10;7.93;;;30.60;50.30;;;;;;5047294;28;20030;-77
2022/08/25 08:06:12;;;;;;;14.30;8.07;;;30.50;49.60;;;;;;5036178;28;20025;-89
2022/08/25 08:08:43;;;;;;;13.48;7.22;;;30.40;49.30;;;;;;5031192;28;20472;-89
2022/08/25 08:11:17;;;;;;;18.40;7.85;;;30.40;49.40;;;;;;5033946;28;20044;-88
2022/08/25 08:13:44;;;;;;;24.25;7.15;;;30.30;48.40;;;;;;5028530;28;20080;-83
2022/08/25 08:16:12;;;;;;;14.02;6.93;;;30.30;47.60;;;;;;5030049;28;20407;-88
2022/08/25 08:18:38;;;;;;;10.40;6.85;;;30.20;47.30;;;;;;5033000;28;20040;-82
2022/08/25 08:21:04;;;;;;;17.52;6.97;;;30.20;47.70;;;;;;5028993;28;20029;-80
2022/08/25 08:23:30;;;;;;;11.57;6.95;;;30.30;46.60;;;;;;5030519;28;20040;-84
2022/08/25 08:25:56;;;;;;;11.27;7.65;;;30.20;48.80;;;;;;5030597;28;20059;-89
2022/08/25 08:28:26;;;;;;;12.35;7.15;;;30.30;50.00;;;;;;5028640;28;20458;-89
2022/08/25 08:30:52;;;;;;;14.07;7.00;;;30.20;49.60;;;;;;5032069;28;20035;-85
2022/08/25 08:33:18;;;;;;;8.15;6.88;;;30.20;48.60;;;;;;5027738;28;20025;-88
2022/08/25 08:35:44;;;;;;;9.48;7.00;;;30.10;50.60;;;;;;5030855;28;20029;-86
2022/08/25 08:38:11;;;;;;;7.57;6.43;;;30.00;50.90;;;;;;5029157;28;20045;-81
2022/08/25 08:42:15;;;;;;;12.18;6.70;;;30.00;48.80;;;;;;5008419;28;20127;-83
2022/08/25 08:43:36;;;;;;;10.73;6.30;;;29.90;48.10;;;;;;5025088;28;20061;-82
2022/08/25 08:46:03;;;;;;;9.65;6.90;;;29.90;47.30;;;;;;5028309;28;20312;-87
2022/08/25 08:48:37;;;;;;;11.98;6.22;;;30.00;46.10;;;;;;5017763;28;20103;-82
2022/08/25 08:51:11;;;;;;;;;;;30.00;45.80;;;;;;5014895;28;20038;-84
2022/08/25 08:53:55;;;;;;;7.70;6.53;;;29.90;47.80;;;;;;5026344;28;19917;-84
2022/08/25 08:56:44;;;;;;;10.38;6.60;;;29.80;49.70;;;;;;5011980;28;20082;-84
2022/08/25 08:59:17;;;;;;;11.07;6.50;;;29.80;49.70;;;;;;5020395;28;20471;-81
2022/08/25 09:01:47;;;;;;;6.82;6.10;;;29.80;47.60;;;;;;5036687;28;20072;-84
2022/08/25 09:04:14;;;;;;;12.77;6.32;;;29.80;47.20;;;;;;5021713;28;20411;-82
2022/08/25 09:06:43;;;;;;;7.97;5.97;;;29.80;46.60;;;;;;5022338;28;20116;-82
2022/08/25 09:09:13;;;;;;;7.00;5.88;;;29.80;47.60;;;;;;5020466;28;20084;-82
2022/08/25 09:12:14;;;;;;;9.75;6.57;;;29.70;47.90;;;;;;5021810;28;20065;-82
2022/08/25 09:14:46;;;;;;;7.57;6.20;;;29.80;46.70;;;;;;5040045;28;20037;-82
2022/08/25 09:17:23;;;;;;;9.55;6.55;;;29.70;47.90;;;;;;5030977;28;20052;-81
2022/08/25 09:20:13;;;;;;;7.18;6.00;;;29.70;48.80;;;;;;5026352;28;20737;-83
2022/08/25 09:22:42;;;;;;;9.13;6.45;;;29.60;49.50;;;;;;5020755;28;20044;-83
2022/08/25 09:25:26;;;;;;;8.60;5.80;;;29.70;49.60;;;;;;5020413;28;20083;-85
2022/08/25 09:28:04;;;;;;;6.80;6.10;;;29.70;49.50;;;;;;5002935;28;20033;-88
2022/08/25 09:30:51;;;;;;;10.80;7.00;;;29.70;49.70;;;;;;5026806;28;20035;-82
2022/08/25 09:33:20;;;;;;;7.97;5.97;;;29.50;50.70;;;;;;5020769;28;20037;-82
2022/08/25 09:35:47;;;;;;;10.05;6.60;;;29.40;49.00;;;;;;5023807;28;20459;-88
2022/08/25 09:38:13;;;;;;;7.18;5.78;;;29.30;51.40;;;;;;5025041;28;20587;-87
2022/08/25 09:40:52;;;;;;;10.80;6.22;;;29.30;52.10;;;;;;5035249;28;20029;-88
2022/08/25 09:43:27;;;;;;;7.75;6.55;;;29.30;51.90;;;;;;5023708;28;20282;-85
2022/08/25 09:45:59;;;;;;;;;;;29.30;51.70;;;;;;5022438;28;20033;-92
2022/08/25 09:48:41;;;;;;;9.48;6.85;;;29.20;51.20;;;;;;5036211;28;20011;-84
2022/08/25 09:51:25;;;;;;;9.15;6.53;;;29.20;50.80;;;;;;5021290;28;20033;-80
2022/08/25 09:53:56;;;;;;;9.77;6.45;;;29.10;51.70;;;;;;5021348;28;20037;-83
2022/08/25 09:56:30;;;;;;;10.82;7.32;;;29.10;51.90;;;;;;5027852;28;20044;-81
2022/08/25 09:59:27;;;;;;;12.23;6.33;;;29.10;52.20;;;;;;5018633;28;20515;-81
2022/08/25 10:01:58;;;;;;;12.45;7.22;;;29.10;52.10;;;;;;5025319;28;20395;-82
2022/08/25 10:04:44;;;;;;;12.25;7.15;;;29.10;51.70;;;;;;5023191;28;20037;-86
2022/08/25 10:07:27;;;;;;;8.93;6.57;;;29.10;51.80;;;;;;5025446;28;20041;-82
2022/08/25 10:09:57;;;;;;;14.70;7.57;;;29.10;51.50;;;;;;5046770;28;20065;-79
2022/08/25 10:12:40;;;;;;;9.25;6.63;;;29.10;50.70;;;;;;5046643;28;20960;-79
2022/08/25 10:15:23;;;;;;;9.63;6.85;;;29.10;51.80;;;;;;5052310;28;20056;-79
2022/08/25 10:17:49;;;;;;;7.65;6.57;;;29.10;51.80;;;;;;5055983;28;20037;-78
2022/08/25 10:20:19;;;;;;;7.50;6.57;;;29.10;51.40;;;;;;5043109;28;20042;-83
2022/08/25 10:22:46;;;;;;;8.00;6.55;;;29.10;51.60;;;;;;5053248;28;20044;-86
2022/08/25 10:25:14;;;;;;;6.68;6.03;;;29.10;51.30;;;;;;5026536;28;20037;-85
2022/08/25 10:28:14;;;;;;;9.25;6.53;;;29.10;49.70;;;;;;5029151;28;20124;-90
2022/08/25 10:31:12;;;;;;;7.43;6.70;;;29.10;50.70;;;;;;5036414;28;20052;-92
2022/08/25 10:33:58;;;;;;;7.80;6.40;;;29.10;48.20;;;;;;5018933;28;20052;-86
2022/08/25 10:36:42;;;;;;;7.57;6.38;;;29.10;49.20;;;;;;5000119;28;20057;-89
2022/08/25 10:39:17;;;;;;;11.15;6.63;;;29.10;49.20;;;;;;4997868;28;20125;-86
2022/08/25 10:42:15;;;;;;;9.13;6.70;;;29.10;48.00;;;;;;5006278;28;20073;-87
2022/08/25 10:48:29;;;;;;;7.20;6.50;;;29.10;49.20;;;;;;5013631;28;20034;-90
2022/08/25 10:51:18;;;;;;;8.18;6.50;;;29.10;48.80;;;;;;5008170;28;20046;-83
2022/08/25 10:54:05;;;;;;;9.80;6.82;;;29.10;49.10;;;;;;5012766;28;20042;-84
2022/08/25 10:56:44;;;;;;;7.22;6.50;;;29.10;49.50;;;;;;5024127;28;20038;-78
2022/08/25 10:59:48;;;;;;;7.45;6.57;;;29.10;49.30;;;;;;5028774;28;20050;-79
2022/08/25 11:02:54;;;;;;;7.90;6.75;;;29.10;48.10;;;;;;4998790;28;20038;-78
2022/08/25 11:05:35;;;;;;;7.45;6.75;;;29.10;48.30;;;;;;5016522;28;20042;-79
2022/08/25 11:08:10;;;;;;;8.30;6.50;;;29.10;48.40;;;;;;5030498;28;20046;-83
2022/08/25 11:11:02;;;;;;;8.02;7.22;;;29.10;48.30;;;;;;5012126;28;20035;-76
2022/08/25 11:13:40;;;;;;;9.98;7.28;;;29.10;48.60;;;;;;5016377;28;20041;-89
2022/08/25 11:16:28;;;;;;;9.15;7.18;;;29.10;48.40;;;;;;5027216;28;20033;-91
2022/08/25 11:19:39;;;;;;;9.65;7.18;;;29.10;48.40;;;;;;5024848;28;20037;-90
2022/08/25 11:22:26;;;;;;;9.10;7.07;;;29.10;48.30;;;;;;4998179;28;20053;-87
2022/08/25 11:25:03;;;;;;;8.35;7.25;;;29.10;47.80;;;;;;4982370;28;20034;-85
2022/08/25 11:27:55;;;;;;;8.02;7.10;;;29.10;47.70;;;;;;5001844;28;20112;-90
2022/08/25 11:30:22;;;;;;;10.98;7.05;;;29.10;47.80;;;;;;4979856;28;20046;-92
2022/08/25 11:32:50;;;;;;;8.75;7.85;;;29.10;47.90;;;;;;4985228;28;20038;-87
2022/08/25 11:35:39;;;;;;;8.95;7.32;;;29.10;47.60;;;;;;4994519;28;20177;-88
2022/08/25 11:38:31;;;;;;;12.00;7.82;;;29.10;47.00;;;;;;4991141;28;20042;-92
2022/08/25 11:41:15;;;;;;;10.18;7.38;;;29.10;47.20;;;;;;4993203;28;20033;-88
2022/08/25 11:44:18;;;;;;;10.80;7.47;;;29.10;47.50;;;;;;4993364;28;20041;-86
2022/08/25 11:46:58;;;;;;;9.10;7.75;;;29.10;46.40;;;;;;4971025;28;20088;-89
2022/08/25 11:49:42;;;;;;;14.63;7.43;;;29.10;47.60;;;;;;4998374;28;20093;-91
2022/08/25 11:52:31;;;;;;;11.30;7.75;;;29.10;47.20;;;;;;4989827;28;20057;-87
2022/08/25 11:55:18;;;;;;;8.60;7.35;;;29.10;46.80;;;;;;5021486;28;20033;-85
2022/08/25 11:57:47;;;;;;;8.48;7.35;;;29.10;46.40;;;;;;5025198;28;20034;-86
2022/08/25 12:00:42;;;;;;;13.38;7.78;;;29.10;47.20;;;;;;5007251;28;20022;-85
2022/08/25 12:03:41;;;;;;;8.05;7.22;;;29.10;45.80;;;;;;5022583;28;20162;-84
2022/08/25 12:06:32;;;;;;;9.63;7.47;;;29.10;46.30;;;;;;4983707;28;20029;-84
2022/08/25 12:09:03;;;;;;;10.32;7.03;;;29.10;46.60;;;;;;5018864;28;20128;-85
2022/08/25 12:11:38;;;;;;;9.05;7.28;;;29.10;46.30;;;;;;5026955;28;20482;-84
2022/08/25 12:14:16;;;;;;;8.93;7.47;;;29.10;46.60;;;;;;5028021;28;20041;-86
2022/08/25 12:16:49;;;;;;;8.85;7.30;;;29.10;46.90;;;;;;5027727;28;20103;-84
2022/08/25 12:19:33;;;;;;;9.30;7.40;;;29.10;46.60;;;;;;5008265;28;20038;-82
2022/08/25 12:22:02;;;;;;;13.95;7.15;;;29.20;46.50;;;;;;4999165;28;20076;-83
2022/08/25 12:24:43;;;;;;;12.77;7.15;;;29.20;45.10;;;;;;5011260;28;20500;-83
2022/08/25 12:27:27;;;;;;;15.23;7.80;;;29.30;43.10;;;;;;5023322;28;20056;-85
2022/08/25 12:30:31;;;;;;;9.95;7.60;;;29.30;44.50;;;;;;5022305;28;20042;-89
2022/08/25 12:33:34;;;;;;;10.68;7.50;;;29.20;45.50;;;;;;5018046;28;20076;-85
2022/08/25 12:36:08;;;;;;;9.95;7.30;;;29.20;46.10;;;;;;5004767;28;20075;-84
2022/08/25 12:38:47;;;;;;;7.70;6.82;;;29.20;46.20;;;;;;4993443;28;20057;-84
2022/08/25 12:41:31;;;;;;;8.23;7.28;;;29.20;46.20;;;;;;5011620;28;20120;-82
2022/08/25 12:44:38;;;;;;;10.45;7.90;;;29.10;46.30;;;;;;5005959;28;20041;-82
2022/08/25 12:47:30;;;;;;;9.05;6.90;;;29.20;46.70;;;;;;5022599;28;20037;-86
2022/08/25 12:50:27;;;;;;;8.98;7.57;;;29.20;47.00;;;;;;5037188;28;20042;-89
2022/08/25 12:52:57;;;;;;;12.85;7.30;;;29.20;46.70;;;;;;5004636;28;20356;-91
2022/08/25 12:55:26;;;;;;;8.98;7.88;;;29.20;46.70;;;;;;5021566;28;20041;-88
2022/08/25 12:57:57;;;;;;;9.75;7.82;;;29.20;47.10;;;;;;5009336;28;20032;-86
2022/08/25 13:00:34;;;;;;;12.48;8.07;;;29.20;47.20;;;;;;5023277;28;20024;-85
2022/08/25 13:03:24;;;;;;;9.80;7.50;;;29.20;47.00;;;;;;5022094;28;20044;-87
2022/08/25 13:06:12;;;;;;;8.32;7.57;;;29.20;47.00;;;;;;5022508;28;20033;-86
2022/08/25 13:08:49;;;;;;;16.38;8.40;;;29.20;46.80;;;;;;5022972;28;20084;-88